sensor_id;sensor_type;location;lat;lon;timestamp;P1;durP1;ratioP1;P2;durP2;ratioP2
70787;SDS011;58391;47.752;19.100;2022-07-23T00:01:25;1.62;;;0.68;;
70787;SDS011;58391;47.752;19.100;2022-07-23T00:03:54;1.70;;;0.70;;
70787;SDS011;58391;47.752;19.100;2022-07-23T00:06:21;1.73;;;0.85;;
70787;SDS011;58391;47.752;19.100;2022-07-23T00:08:49;1.77;;;0.68;;
70787;SDS011;58391;47.752;19.100;2022-07-23T00:11:17;1.50;;;0.50;;
70787;SDS011;58391;47.752;19.100;2022-07-23T00:13:43;1.70;;;0.70;;
70787;SDS011;58391;47.752;19.100;2022-07-23T00:16:10;1.95;;;0.70;;
70787;SDS011;58391;47.752;19.100;2022-07-23T00:18:37;2.08;;;1.08;;
70787;SDS011;58391;47.752;19.100;2022-07-23T00:21:04;1.73;;;0.57;;
70787;SDS011;58391;47.752;19.100;2022-07-23T00:23:31;1.50;;;0.55;;
70787;SDS011;58391;47.752;19.100;2022-07-23T00:25:58;1.87;;;0.60;;
70787;SDS011;58391;47.752;19.100;2022-07-23T00:28:25;3.17;;;0.60;;
70787;SDS011;58391;47.752;19.100;2022-07-23T00:30:52;2.00;;;0.65;;
70787;SDS011;58391;47.752;19.100;2022-07-23T00:33:19;1.40;;;0.40;;
70787;SDS011;58391;47.752;19.100;2022-07-23T00:35:46;2.17;;;0.83;;
70787;SDS011;58391;47.752;19.100;2022-07-23T00:38:13;1.70;;;0.55;;
70787;SDS011;58391;47.752;19.100;2022-07-23T00:40:40;1.40;;;0.50;;
70787;SDS011;58391;47.752;19.100;2022-07-23T00:43:07;1.67;;;0.65;;
70787;SDS011;58391;47.752;19.100;2022-07-23T00:45:37;1.33;;;0.40;;
70787;SDS011;58391;47.752;19.100;2022-07-23T00:48:04;1.77;;;0.70;;
70787;SDS011;58391;47.752;19.100;2022-07-23T00:50:31;1.65;;;0.40;;
70787;SDS011;58391;47.752;19.100;2022-07-23T00:52:58;2.12;;;0.70;;
70787;SDS011;58391;47.752;19.100;2022-07-23T00:55:25;1.37;;;0.50;;
70787;SDS011;58391;47.752;19.100;2022-07-23T00:57:53;1.60;;;0.53;;
70787;SDS011;58391;47.752;19.100;2022-07-23T01:00:20;3.03;;;0.60;;
70787;SDS011;58391;47.752;19.100;2022-07-23T01:02:47;3.42;;;0.80;;
70787;SDS011;58391;47.752;19.100;2022-07-23T01:05:14;1.27;;;0.45;;
70787;SDS011;58391;47.752;19.100;2022-07-23T01:07:42;1.47;;;0.50;;
70787;SDS011;58391;47.752;19.100;2022-07-23T01:10:09;1.70;;;0.73;;
70787;SDS011;58391;47.752;19.100;2022-07-23T01:12:55;2.30;;;1.00;;
70787;SDS011;58391;47.752;19.100;2022-07-23T01:15:22;1.50;;;0.70;;
70787;SDS011;58391;47.752;19.100;2022-07-23T01:17:49;1.35;;;0.37;;
70787;SDS011;58391;47.752;19.100;2022-07-23T01:20:17;1.40;;;0.70;;
70787;SDS011;58391;47.752;19.100;2022-07-23T01:22:45;1.65;;;0.57;;
70787;SDS011;58391;47.752;19.100;2022-07-23T01:25:12;2.30;;;1.30;;
70787;SDS011;58391;47.752;19.100;2022-07-23T01:27:39;1.85;;;0.62;;
70787;SDS011;58391;47.752;19.100;2022-07-23T01:30:06;1.60;;;0.50;;
70787;SDS011;58391;47.752;19.100;2022-07-23T01:32:34;5.85;;;0.77;;
70787;SDS011;58391;47.752;19.100;2022-07-23T01:35:01;1.62;;;0.50;;
70787;SDS011;58391;47.752;19.100;2022-07-23T01:37:28;1.60;;;0.40;;
70787;SDS011;58391;47.752;19.100;2022-07-23T01:39:55;2.17;;;0.50;;
70787;SDS011;58391;47.752;19.100;2022-07-23T01:42:22;1.45;;;0.40;;
70787;SDS011;58391;47.752;19.100;2022-07-23T01:44:49;1.50;;;0.60;;
70787;SDS011;58391;47.752;19.100;2022-07-23T01:47:17;1.45;;;0.57;;
70787;SDS011;58391;47.752;19.100;2022-07-23T01:49:44;1.50;;;0.50;;
70787;SDS011;58391;47.752;19.100;2022-07-23T01:52:11;1.77;;;0.50;;
70787;SDS011;58391;47.752;19.100;2022-07-23T01:54:38;1.80;;;0.65;;
70787;SDS011;58391;47.752;19.100;2022-07-23T01:57:06;1.50;;;0.50;;
70787;SDS011;58391;47.752;19.100;2022-07-23T01:59:33;1.70;;;0.53;;
70787;SDS011;58391;47.752;19.100;2022-07-23T02:02:01;2.37;;;0.43;;
70787;SDS011;58391;47.752;19.100;2022-07-23T02:04:30;1.25;;;0.45;;
70787;SDS011;58391;47.752;19.100;2022-07-23T02:06:57;1.30;;;0.40;;
70787;SDS011;58391;47.752;19.100;2022-07-23T02:09:24;1.58;;;0.60;;
70787;SDS011;58391;47.752;19.100;2022-07-23T02:11:51;4.33;;;0.73;;
70787;SDS011;58391;47.752;19.100;2022-07-23T02:14:18;1.15;;;0.30;;
70787;SDS011;58391;47.752;19.100;2022-07-23T02:16:44;1.50;;;0.52;;
70787;SDS011;58391;47.752;19.100;2022-07-23T02:19:11;1.62;;;0.57;;
70787;SDS011;58391;47.752;19.100;2022-07-23T02:21:38;1.67;;;0.70;;
70787;SDS011;58391;47.752;19.100;2022-07-23T02:24:06;1.40;;;0.40;;
70787;SDS011;58391;47.752;19.100;2022-07-23T02:26:33;1.45;;;0.50;;
70787;SDS011;58391;47.752;19.100;2022-07-23T02:29:01;1.50;;;0.47;;
70787;SDS011;58391;47.752;19.100;2022-07-23T02:31:30;1.30;;;0.40;;
70787;SDS011;58391;47.752;19.100;2022-07-23T02:33:57;1.23;;;0.30;;
70787;SDS011;58391;47.752;19.100;2022-07-23T02:36:24;1.50;;;0.50;;
70787;SDS011;58391;47.752;19.100;2022-07-23T02:38:53;1.05;;;0.30;;
70787;SDS011;58391;47.752;19.100;2022-07-23T02:41:19;1.35;;;0.40;;
70787;SDS011;58391;47.752;19.100;2022-07-23T02:43:46;1.90;;;0.55;;
70787;SDS011;58391;47.752;19.100;2022-07-23T02:46:13;1.30;;;0.40;;
70787;SDS011;58391;47.752;19.100;2022-07-23T02:48:40;1.43;;;0.40;;
70787;SDS011;58391;47.752;19.100;2022-07-23T02:51:07;1.85;;;0.85;;
70787;SDS011;58391;47.752;19.100;2022-07-23T02:53:40;3.97;;;0.60;;
70787;SDS011;58391;47.752;19.100;2022-07-23T02:56:07;1.70;;;0.40;;
70787;SDS011;58391;47.752;19.100;2022-07-23T02:58:34;2.33;;;0.85;;
70787;SDS011;58391;47.752;19.100;2022-07-23T03:01:01;1.42;;;0.37;;
70787;SDS011;58391;47.752;19.100;2022-07-23T03:03:28;1.30;;;0.50;;
70787;SDS011;58391;47.752;19.100;2022-07-23T03:05:55;1.60;;;0.47;;
70787;SDS011;58391;47.752;19.100;2022-07-23T03:08:22;1.20;;;0.30;;
70787;SDS011;58391;47.752;19.100;2022-07-23T03:10:49;2.35;;;0.90;;
70787;SDS011;58391;47.752;19.100;2022-07-23T03:13:16;1.25;;;0.45;;
70787;SDS011;58391;47.752;19.100;2022-07-23T03:15:43;1.40;;;0.50;;
70787;SDS011;58391;47.752;19.100;2022-07-23T03:18:10;1.30;;;0.30;;
70787;SDS011;58391;47.752;19.100;2022-07-23T03:20:37;1.05;;;0.32;;
70787;SDS011;58391;47.752;19.100;2022-07-23T03:23:04;1.02;;;0.30;;
70787;SDS011;58391;47.752;19.100;2022-07-23T03:25:31;1.23;;;0.50;;
70787;SDS011;58391;47.752;19.100;2022-07-23T03:27:58;1.95;;;1.20;;
70787;SDS011;58391;47.752;19.100;2022-07-23T03:30:24;1.30;;;0.40;;
70787;SDS011;58391;47.752;19.100;2022-07-23T03:32:51;1.95;;;0.68;;
70787;SDS011;58391;47.752;19.100;2022-07-23T03:35:18;1.37;;;0.47;;
70787;SDS011;58391;47.752;19.100;2022-07-23T03:37:45;1.40;;;0.40;;
70787;SDS011;58391;47.752;19.100;2022-07-23T03:40:13;1.90;;;0.95;;
70787;SDS011;58391;47.752;19.100;2022-07-23T03:42:39;1.20;;;0.30;;
70787;SDS011;58391;47.752;19.100;2022-07-23T03:45:08;1.40;;;0.40;;
70787;SDS011;58391;47.752;19.100;2022-07-23T03:47:36;1.70;;;0.50;;
70787;SDS011;58391;47.752;19.100;2022-07-23T03:50:03;1.95;;;0.82;;
70787;SDS011;58391;47.752;19.100;2022-07-23T03:52:30;2.50;;;1.00;;
70787;SDS011;58391;47.752;19.100;2022-07-23T03:54:57;1.48;;;0.70;;
70787;SDS011;58391;47.752;19.100;2022-07-23T03:57:24;1.20;;;0.35;;
70787;SDS011;58391;47.752;19.100;2022-07-23T03:59:51;1.83;;;0.60;;
70787;SDS011;58391;47.752;19.100;2022-07-23T04:02:18;2.05;;;0.52;;
70787;SDS011;58391;47.752;19.100;2022-07-23T04:04:45;1.77;;;0.40;;
70787;SDS011;58391;47.752;19.100;2022-07-23T04:07:13;1.37;;;0.40;;
70787;SDS011;58391;47.752;19.100;2022-07-23T04:09:40;1.10;;;0.30;;
70787;SDS011;58391;47.752;19.100;2022-07-23T04:12:11;2.03;;;1.00;;
70787;SDS011;58391;47.752;19.100;2022-07-23T04:14:39;1.65;;;0.40;;
70787;SDS011;58391;47.752;19.100;2022-07-23T04:17:05;1.40;;;0.40;;
70787;SDS011;58391;47.752;19.100;2022-07-23T04:19:32;1.45;;;0.30;;
70787;SDS011;58391;47.752;19.100;2022-07-23T04:21:59;1.52;;;0.50;;
70787;SDS011;58391;47.752;19.100;2022-07-23T04:24:26;2.20;;;0.47;;
70787;SDS011;58391;47.752;19.100;2022-07-23T04:26:53;1.30;;;0.30;;
70787;SDS011;58391;47.752;19.100;2022-07-23T04:29:20;1.30;;;0.40;;
70787;SDS011;58391;47.752;19.100;2022-07-23T04:31:47;3.47;;;0.70;;
70787;SDS011;58391;47.752;19.100;2022-07-23T04:34:14;1.62;;;0.45;;
70787;SDS011;58391;47.752;19.100;2022-07-23T04:36:41;1.50;;;0.47;;
70787;SDS011;58391;47.752;19.100;2022-07-23T04:39:08;3.23;;;1.03;;
70787;SDS011;58391;47.752;19.100;2022-07-23T04:41:35;1.93;;;0.70;;
70787;SDS011;58391;47.752;19.100;2022-07-23T04:44:02;3.12;;;0.85;;
70787;SDS011;58391;47.752;19.100;2022-07-23T04:46:29;1.98;;;0.50;;
70787;SDS011;58391;47.752;19.100;2022-07-23T04:48:57;2.22;;;0.73;;
70787;SDS011;58391;47.752;19.100;2022-07-23T04:51:25;1.20;;;0.40;;
70787;SDS011;58391;47.752;19.100;2022-07-23T04:53:51;3.90;;;1.02;;
70787;SDS011;58391;47.752;19.100;2022-07-23T04:56:18;2.33;;;0.88;;
70787;SDS011;58391;47.752;19.100;2022-07-23T04:58:45;1.40;;;0.40;;
70787;SDS011;58391;47.752;19.100;2022-07-23T05:01:12;3.05;;;0.98;;
70787;SDS011;58391;47.752;19.100;2022-07-23T05:03:39;1.50;;;0.50;;
70787;SDS011;58391;47.752;19.100;2022-07-23T05:06:06;2.05;;;0.62;;
70787;SDS011;58391;47.752;19.100;2022-07-23T05:08:33;1.35;;;0.45;;
70787;SDS011;58391;47.752;19.100;2022-07-23T05:11:00;1.60;;;0.60;;
70787;SDS011;58391;47.752;19.100;2022-07-23T05:13:27;2.22;;;0.82;;
70787;SDS011;58391;47.752;19.100;2022-07-23T05:15:54;1.62;;;0.60;;
70787;SDS011;58391;47.752;19.100;2022-07-23T05:18:21;1.85;;;0.70;;
70787;SDS011;58391;47.752;19.100;2022-07-23T05:20:48;2.00;;;1.05;;
70787;SDS011;58391;47.752;19.100;2022-07-23T05:23:15;1.90;;;0.70;;
70787;SDS011;58391;47.752;19.100;2022-07-23T05:25:41;1.62;;;0.50;;
70787;SDS011;58391;47.752;19.100;2022-07-23T05:28:09;1.70;;;0.60;;
70787;SDS011;58391;47.752;19.100;2022-07-23T05:30:36;2.53;;;1.17;;
70787;SDS011;58391;47.752;19.100;2022-07-23T05:33:02;2.70;;;1.27;;
70787;SDS011;58391;47.752;19.100;2022-07-23T05:35:29;1.23;;;0.40;;
70787;SDS011;58391;47.752;19.100;2022-07-23T05:37:56;1.52;;;0.60;;
70787;SDS011;58391;47.752;19.100;2022-07-23T05:40:23;2.15;;;1.27;;
70787;SDS011;58391;47.752;19.100;2022-07-23T05:42:50;2.22;;;0.90;;
70787;SDS011;58391;47.752;19.100;2022-07-23T05:45:17;1.60;;;0.60;;
70787;SDS011;58391;47.752;19.100;2022-07-23T05:47:49;2.08;;;0.90;;
70787;SDS011;58391;47.752;19.100;2022-07-23T05:50:16;1.83;;;0.80;;
70787;SDS011;58391;47.752;19.100;2022-07-23T05:52:43;1.60;;;0.60;;
70787;SDS011;58391;47.752;19.100;2022-07-23T05:55:11;1.52;;;0.60;;
70787;SDS011;58391;47.752;19.100;2022-07-23T05:57:39;1.87;;;0.73;;
70787;SDS011;58391;47.752;19.100;2022-07-23T06:00:07;6.95;;;0.82;;
70787;SDS011;58391;47.752;19.100;2022-07-23T06:02:36;2.45;;;0.98;;
70787;SDS011;58391;47.752;19.100;2022-07-23T06:05:04;1.60;;;0.60;;
70787;SDS011;58391;47.752;19.100;2022-07-23T06:07:31;2.37;;;1.40;;
70787;SDS011;58391;47.752;19.100;2022-07-23T06:09:58;1.92;;;0.93;;
70787;SDS011;58391;47.752;19.100;2022-07-23T06:12:25;2.42;;;0.77;;
70787;SDS011;58391;47.752;19.100;2022-07-23T06:14:52;1.50;;;0.60;;
70787;SDS011;58391;47.752;19.100;2022-07-23T06:17:19;2.10;;;1.30;;
70787;SDS011;58391;47.752;19.100;2022-07-23T06:19:46;1.65;;;0.62;;
70787;SDS011;58391;47.752;19.100;2022-07-23T06:22:13;2.28;;;0.90;;
70787;SDS011;58391;47.752;19.100;2022-07-23T06:24:39;1.87;;;0.80;;
70787;SDS011;58391;47.752;19.100;2022-07-23T06:27:07;2.00;;;0.90;;
70787;SDS011;58391;47.752;19.100;2022-07-23T06:29:34;1.63;;;0.80;;
70787;SDS011;58391;47.752;19.100;2022-07-23T06:32:01;1.80;;;0.80;;
70787;SDS011;58391;47.752;19.100;2022-07-23T06:34:27;2.03;;;0.95;;
70787;SDS011;58391;47.752;19.100;2022-07-23T06:36:54;1.95;;;1.00;;
70787;SDS011;58391;47.752;19.100;2022-07-23T06:39:21;1.67;;;0.80;;
70787;SDS011;58391;47.752;19.100;2022-07-23T06:41:49;3.08;;;1.15;;
70787;SDS011;58391;47.752;19.100;2022-07-23T06:44:18;2.70;;;0.83;;
70787;SDS011;58391;47.752;19.100;2022-07-23T06:46:45;2.17;;;1.27;;
70787;SDS011;58391;47.752;19.100;2022-07-23T06:49:12;2.08;;;0.88;;
70787;SDS011;58391;47.752;19.100;2022-07-23T06:51:39;1.98;;;1.05;;
70787;SDS011;58391;47.752;19.100;2022-07-23T06:54:06;2.25;;;1.20;;
70787;SDS011;58391;47.752;19.100;2022-07-23T06:56:33;2.55;;;1.65;;
70787;SDS011;58391;47.752;19.100;2022-07-23T06:59:00;1.90;;;1.00;;
70787;SDS011;58391;47.752;19.100;2022-07-23T07:01:27;1.80;;;0.90;;
70787;SDS011;58391;47.752;19.100;2022-07-23T07:03:55;2.65;;;1.52;;
70787;SDS011;58391;47.752;19.100;2022-07-23T07:06:22;4.37;;;2.87;;
70787;SDS011;58391;47.752;19.100;2022-07-23T07:08:50;3.27;;;1.67;;
70787;SDS011;58391;47.752;19.100;2022-07-23T07:11:17;2.40;;;1.23;;
70787;SDS011;58391;47.752;19.100;2022-07-23T07:13:44;2.10;;;1.15;;
70787;SDS011;58391;47.752;19.100;2022-07-23T07:16:11;2.05;;;1.10;;
70787;SDS011;58391;47.752;19.100;2022-07-23T07:18:38;1.90;;;1.02;;
70787;SDS011;58391;47.752;19.100;2022-07-23T07:21:05;2.07;;;1.23;;
70787;SDS011;58391;47.752;19.100;2022-07-23T07:23:32;3.22;;;1.70;;
70787;SDS011;58391;47.752;19.100;2022-07-23T07:25:59;2.03;;;1.17;;
70787;SDS011;58391;47.752;19.100;2022-07-23T07:28:26;2.28;;;1.20;;
70787;SDS011;58391;47.752;19.100;2022-07-23T07:30:53;2.08;;;1.20;;
70787;SDS011;58391;47.752;19.100;2022-07-23T07:33:20;2.93;;;1.57;;
70787;SDS011;58391;47.752;19.100;2022-07-23T07:35:47;2.10;;;1.00;;
70787;SDS011;58391;47.752;19.100;2022-07-23T07:38:14;2.65;;;1.67;;
70787;SDS011;58391;47.752;19.100;2022-07-23T07:40:41;2.60;;;1.50;;
70787;SDS011;58391;47.752;19.100;2022-07-23T07:43:08;2.42;;;1.42;;
70787;SDS011;58391;47.752;19.100;2022-07-23T07:45:35;2.47;;;1.60;;
70787;SDS011;58391;47.752;19.100;2022-07-23T07:48:02;2.35;;;1.30;;
70787;SDS011;58391;47.752;19.100;2022-07-23T07:50:29;2.75;;;1.67;;
70787;SDS011;58391;47.752;19.100;2022-07-23T07:52:56;2.40;;;1.40;;
70787;SDS011;58391;47.752;19.100;2022-07-23T07:55:23;2.30;;;1.50;;
70787;SDS011;58391;47.752;19.100;2022-07-23T07:57:50;2.30;;;1.55;;
70787;SDS011;58391;47.752;19.100;2022-07-23T08:00:17;1.98;;;1.17;;
70787;SDS011;58391;47.752;19.100;2022-07-23T08:02:51;2.83;;;2.03;;
70787;SDS011;58391;47.752;19.100;2022-07-23T08:05:23;2.30;;;1.30;;
70787;SDS011;58391;47.752;19.100;2022-07-23T08:07:54;2.25;;;1.42;;
70787;SDS011;58391;47.752;19.100;2022-07-23T08:10:26;2.42;;;1.75;;
70787;SDS011;58391;47.752;19.100;2022-07-23T08:12:56;2.92;;;1.65;;
70787;SDS011;58391;47.752;19.100;2022-07-23T08:15:25;3.40;;;1.93;;
70787;SDS011;58391;47.752;19.100;2022-07-23T08:17:53;2.42;;;1.50;;
70787;SDS011;58391;47.752;19.100;2022-07-23T08:20:20;2.65;;;1.62;;
70787;SDS011;58391;47.752;19.100;2022-07-23T08:23:07;2.42;;;1.70;;
70787;SDS011;58391;47.752;19.100;2022-07-23T08:25:35;2.60;;;1.87;;
70787;SDS011;58391;47.752;19.100;2022-07-23T08:28:07;4.67;;;2.83;;
70787;SDS011;58391;47.752;19.100;2022-07-23T08:30:36;2.65;;;1.62;;
70787;SDS011;58391;47.752;19.100;2022-07-23T08:33:05;2.70;;;2.05;;
70787;SDS011;58391;47.752;19.100;2022-07-23T08:35:35;3.78;;;2.17;;
70787;SDS011;58391;47.752;19.100;2022-07-23T08:38:04;2.50;;;1.75;;
70787;SDS011;58391;47.752;19.100;2022-07-23T08:40:34;2.80;;;2.07;;
70787;SDS011;58391;47.752;19.100;2022-07-23T08:43:09;3.17;;;1.70;;
70787;SDS011;58391;47.752;19.100;2022-07-23T08:45:42;2.37;;;1.65;;
70787;SDS011;58391;47.752;19.100;2022-07-23T08:48:12;2.30;;;1.62;;
70787;SDS011;58391;47.752;19.100;2022-07-23T08:50:42;2.70;;;2.07;;
70787;SDS011;58391;47.752;19.100;2022-07-23T08:53:09;3.47;;;2.50;;
70787;SDS011;58391;47.752;19.100;2022-07-23T08:55:37;2.58;;;1.90;;
70787;SDS011;58391;47.752;19.100;2022-07-23T08:58:04;2.62;;;1.80;;
70787;SDS011;58391;47.752;19.100;2022-07-23T09:00:31;2.97;;;2.17;;
70787;SDS011;58391;47.752;19.100;2022-07-23T09:02:58;2.60;;;1.92;;
70787;SDS011;58391;47.752;19.100;2022-07-23T09:05:25;2.40;;;1.67;;
70787;SDS011;58391;47.752;19.100;2022-07-23T09:10:46;2.65;;;1.83;;
70787;SDS011;58391;47.752;19.100;2022-07-23T09:16:08;2.75;;;1.80;;
70787;SDS011;58391;47.752;19.100;2022-07-23T09:21:14;3.40;;;2.05;;
70787;SDS011;58391;47.752;19.100;2022-07-23T09:23:52;2.60;;;1.90;;
70787;SDS011;58391;47.752;19.100;2022-07-23T09:26:48;2.92;;;2.10;;
70787;SDS011;58391;47.752;19.100;2022-07-23T09:29:17;2.62;;;1.98;;
70787;SDS011;58391;47.752;19.100;2022-07-23T09:31:55;2.80;;;2.10;;
70787;SDS011;58391;47.752;19.100;2022-07-23T09:34:28;2.92;;;2.17;;
70787;SDS011;58391;47.752;19.100;2022-07-23T09:36:57;2.70;;;1.97;;
70787;SDS011;58391;47.752;19.100;2022-07-23T09:39:36;3.80;;;2.28;;
70787;SDS011;58391;47.752;19.100;2022-07-23T09:42:19;2.30;;;1.58;;
70787;SDS011;58391;47.752;19.100;2022-07-23T09:44:48;2.33;;;1.62;;
70787;SDS011;58391;47.752;19.100;2022-07-23T09:47:16;2.40;;;1.70;;
70787;SDS011;58391;47.752;19.100;2022-07-23T09:52:40;3.28;;;2.33;;
70787;SDS011;58391;47.752;19.100;2022-07-23T09:55:10;4.00;;;2.30;;
70787;SDS011;58391;47.752;19.100;2022-07-23T09:57:37;3.20;;;2.30;;
70787;SDS011;58391;47.752;19.100;2022-07-23T10:00:06;3.25;;;2.25;;
70787;SDS011;58391;47.752;19.100;2022-07-23T10:02:36;3.00;;;2.10;;
70787;SDS011;58391;47.752;19.100;2022-07-23T10:05:04;2.55;;;1.70;;
70787;SDS011;58391;47.752;19.100;2022-07-23T10:07:32;2.87;;;2.00;;
70787;SDS011;58391;47.752;19.100;2022-07-23T10:10:05;3.83;;;2.50;;
70787;SDS011;58391;47.752;19.100;2022-07-23T10:12:32;2.87;;;2.27;;
70787;SDS011;58391;47.752;19.100;2022-07-23T10:15:18;2.78;;;2.10;;
70787;SDS011;58391;47.752;19.100;2022-07-23T10:17:45;2.58;;;1.90;;
70787;SDS011;58391;47.752;19.100;2022-07-23T10:20:12;3.17;;;2.47;;
70787;SDS011;58391;47.752;19.100;2022-07-23T10:23:22;4.57;;;2.40;;
70787;SDS011;58391;47.752;19.100;2022-07-23T10:25:41;3.47;;;2.47;;
70787;SDS011;58391;47.752;19.100;2022-07-23T10:28:26;3.45;;;2.62;;
70787;SDS011;58391;47.752;19.100;2022-07-23T10:31:07;3.60;;;2.15;;
70787;SDS011;58391;47.752;19.100;2022-07-23T10:36:53;2.85;;;1.58;;
70787;SDS011;58391;47.752;19.100;2022-07-23T10:39:28;2.53;;;1.83;;
70787;SDS011;58391;47.752;19.100;2022-07-23T10:44:40;3.85;;;1.90;;
70787;SDS011;58391;47.752;19.100;2022-07-23T10:47:09;4.97;;;2.20;;
70787;SDS011;58391;47.752;19.100;2022-07-23T10:58:05;3.00;;;2.20;;
70787;SDS011;58391;47.752;19.100;2022-07-23T11:00:33;4.37;;;2.55;;
70787;SDS011;58391;47.752;19.100;2022-07-23T11:03:02;2.80;;;2.05;;
70787;SDS011;58391;47.752;19.100;2022-07-23T11:05:49;2.90;;;2.10;;
70787;SDS011;58391;47.752;19.100;2022-07-23T11:08:17;3.45;;;2.37;;
70787;SDS011;58391;47.752;19.100;2022-07-23T11:10:53;2.53;;;1.90;;
70787;SDS011;58391;47.752;19.100;2022-07-23T11:31:58;5.18;;;3.28;;
70787;SDS011;58391;47.752;19.100;2022-07-23T11:34:46;2.83;;;2.10;;
70787;SDS011;58391;47.752;19.100;2022-07-23T11:37:33;2.60;;;2.00;;
70787;SDS011;58391;47.752;19.100;2022-07-23T11:40:08;2.80;;;2.10;;
70787;SDS011;58391;47.752;19.100;2022-07-23T11:42:37;3.10;;;2.15;;
70787;SDS011;58391;47.752;19.100;2022-07-23T11:45:06;3.15;;;2.42;;
70787;SDS011;58391;47.752;19.100;2022-07-23T11:47:34;3.85;;;2.70;;
70787;SDS011;58391;47.752;19.100;2022-07-23T11:50:03;3.10;;;2.33;;
70787;SDS011;58391;47.752;19.100;2022-07-23T11:52:31;3.20;;;2.50;;
70787;SDS011;58391;47.752;19.100;2022-07-23T11:55:03;3.10;;;2.20;;
70787;SDS011;58391;47.752;19.100;2022-07-23T11:57:32;2.40;;;1.70;;
70787;SDS011;58391;47.752;19.100;2022-07-23T12:00:05;2.92;;;2.35;;
70787;SDS011;58391;47.752;19.100;2022-07-23T12:02:33;3.30;;;2.60;;
70787;SDS011;58391;47.752;19.100;2022-07-23T12:05:00;3.33;;;2.12;;
70787;SDS011;58391;47.752;19.100;2022-07-23T12:07:28;2.92;;;2.45;;
70787;SDS011;58391;47.752;19.100;2022-07-23T12:10:02;3.00;;;2.40;;
70787;SDS011;58391;47.752;19.100;2022-07-23T12:12:38;2.80;;;2.40;;
70787;SDS011;58391;47.752;19.100;2022-07-23T12:15:19;2.92;;;2.37;;
70787;SDS011;58391;47.752;19.100;2022-07-23T12:17:51;3.00;;;2.37;;
70787;SDS011;58391;47.752;19.100;2022-07-23T12:20:23;3.90;;;3.10;;
70787;SDS011;58391;47.752;19.100;2022-07-23T12:22:52;4.10;;;2.60;;
70787;SDS011;58391;47.752;19.100;2022-07-23T12:25:25;3.00;;;2.30;;
70787;SDS011;58391;47.752;19.100;2022-07-23T12:30:32;3.40;;;2.08;;
70787;SDS011;58391;47.752;19.100;2022-07-23T12:33:07;3.08;;;2.30;;
70787;SDS011;58391;47.752;19.100;2022-07-23T12:38:05;3.20;;;2.28;;
70787;SDS011;58391;47.752;19.100;2022-07-23T12:40:34;4.07;;;2.67;;
70787;SDS011;58391;47.752;19.100;2022-07-23T12:48:20;2.90;;;2.30;;
70787;SDS011;58391;47.752;19.100;2022-07-23T12:50:49;2.97;;;2.40;;
70787;SDS011;58391;47.752;19.100;2022-07-23T12:53:17;3.22;;;2.55;;
70787;SDS011;58391;47.752;19.100;2022-07-23T12:55:51;3.03;;;2.33;;
70787;SDS011;58391;47.752;19.100;2022-07-23T13:01:28;3.47;;;2.50;;
70787;SDS011;58391;47.752;19.100;2022-07-23T13:04:00;3.45;;;2.30;;
70787;SDS011;58391;47.752;19.100;2022-07-23T13:06:29;3.17;;;2.53;;
70787;SDS011;58391;47.752;19.100;2022-07-23T13:08:58;3.25;;;2.50;;
70787;SDS011;58391;47.752;19.100;2022-07-23T13:11:27;3.22;;;2.45;;
70787;SDS011;58391;47.752;19.100;2022-07-23T13:13:56;4.13;;;2.77;;
70787;SDS011;58391;47.752;19.100;2022-07-23T13:16:23;3.62;;;2.47;;
70787;SDS011;58391;47.752;19.100;2022-07-23T13:18:53;2.95;;;2.25;;
70787;SDS011;58391;47.752;19.100;2022-07-23T13:21:20;2.70;;;2.10;;
70787;SDS011;58391;47.752;19.100;2022-07-23T13:23:47;3.15;;;2.45;;
70787;SDS011;58391;47.752;19.100;2022-07-23T13:26:15;3.33;;;2.37;;
70787;SDS011;58391;47.752;19.100;2022-07-23T13:28:42;3.45;;;2.33;;
70787;SDS011;58391;47.752;19.100;2022-07-23T13:31:09;2.83;;;2.20;;
70787;SDS011;58391;47.752;19.100;2022-07-23T13:33:36;2.90;;;2.05;;
70787;SDS011;58391;47.752;19.100;2022-07-23T13:36:04;3.15;;;2.28;;
70787;SDS011;58391;47.752;19.100;2022-07-23T13:38:31;3.43;;;2.33;;
70787;SDS011;58391;47.752;19.100;2022-07-23T13:40:59;2.72;;;2.00;;
70787;SDS011;58391;47.752;19.100;2022-07-23T13:43:26;3.05;;;2.17;;
70787;SDS011;58391;47.752;19.100;2022-07-23T13:45:58;4.50;;;2.87;;
70787;SDS011;58391;47.752;19.100;2022-07-23T13:48:26;2.80;;;2.00;;
70787;SDS011;58391;47.752;19.100;2022-07-23T13:50:53;3.07;;;2.40;;
70787;SDS011;58391;47.752;19.100;2022-07-23T13:53:21;2.70;;;1.98;;
70787;SDS011;58391;47.752;19.100;2022-07-23T13:55:49;3.05;;;2.17;;
70787;SDS011;58391;47.752;19.100;2022-07-23T13:58:17;3.12;;;2.28;;
70787;SDS011;58391;47.752;19.100;2022-07-23T14:00:50;3.37;;;2.17;;
70787;SDS011;58391;47.752;19.100;2022-07-23T14:03:20;3.67;;;2.67;;
70787;SDS011;58391;47.752;19.100;2022-07-23T14:05:50;2.78;;;2.08;;
70787;SDS011;58391;47.752;19.100;2022-07-23T14:08:21;2.50;;;1.90;;
70787;SDS011;58391;47.752;19.100;2022-07-23T14:10:49;3.17;;;2.05;;
70787;SDS011;58391;47.752;19.100;2022-07-23T14:13:15;2.78;;;2.08;;
70787;SDS011;58391;47.752;19.100;2022-07-23T14:15:47;2.67;;;1.90;;
70787;SDS011;58391;47.752;19.100;2022-07-23T14:18:16;3.45;;;2.30;;
70787;SDS011;58391;47.752;19.100;2022-07-23T14:20:43;2.70;;;1.80;;
70787;SDS011;58391;47.752;19.100;2022-07-23T14:23:09;2.90;;;2.20;;
70787;SDS011;58391;47.752;19.100;2022-07-23T14:25:39;3.03;;;2.17;;
70787;SDS011;58391;47.752;19.100;2022-07-23T14:28:06;2.83;;;1.83;;
70787;SDS011;58391;47.752;19.100;2022-07-23T14:30:34;3.20;;;1.92;;
70787;SDS011;58391;47.752;19.100;2022-07-23T14:33:01;3.25;;;2.40;;
70787;SDS011;58391;47.752;19.100;2022-07-23T14:35:28;3.30;;;2.03;;
70787;SDS011;58391;47.752;19.100;2022-07-23T14:37:55;4.10;;;2.42;;
70787;SDS011;58391;47.752;19.100;2022-07-23T14:40:23;3.10;;;2.40;;
70787;SDS011;58391;47.752;19.100;2022-07-23T14:42:50;3.17;;;2.10;;
70787;SDS011;58391;47.752;19.100;2022-07-23T14:45:17;3.58;;;2.47;;
70787;SDS011;58391;47.752;19.100;2022-07-23T14:47:45;3.45;;;2.12;;
70787;SDS011;58391;47.752;19.100;2022-07-23T14:50:13;2.83;;;2.00;;
70787;SDS011;58391;47.752;19.100;2022-07-23T14:52:40;2.80;;;2.10;;
70787;SDS011;58391;47.752;19.100;2022-07-23T14:55:07;2.67;;;2.17;;
70787;SDS011;58391;47.752;19.100;2022-07-23T14:57:35;2.78;;;1.90;;
70787;SDS011;58391;47.752;19.100;2022-07-23T15:00:05;4.60;;;2.17;;
70787;SDS011;58391;47.752;19.100;2022-07-23T15:02:34;2.80;;;1.90;;
70787;SDS011;58391;47.752;19.100;2022-07-23T15:05:02;2.75;;;2.00;;
70787;SDS011;58391;47.752;19.100;2022-07-23T15:07:33;3.35;;;2.37;;
70787;SDS011;58391;47.752;19.100;2022-07-23T15:10:00;2.70;;;1.90;;
70787;SDS011;58391;47.752;19.100;2022-07-23T15:12:28;3.28;;;2.37;;
70787;SDS011;58391;47.752;19.100;2022-07-23T15:14:55;3.23;;;2.33;;
70787;SDS011;58391;47.752;19.100;2022-07-23T15:17:22;2.78;;;2.20;;
70787;SDS011;58391;47.752;19.100;2022-07-23T15:19:52;3.05;;;2.28;;
70787;SDS011;58391;47.752;19.100;2022-07-23T15:22:19;3.35;;;2.30;;
70787;SDS011;58391;47.752;19.100;2022-07-23T15:24:47;5.03;;;2.70;;
70787;SDS011;58391;47.752;19.100;2022-07-23T15:27:14;2.83;;;2.10;;
70787;SDS011;58391;47.752;19.100;2022-07-23T15:29:44;2.92;;;1.90;;
70787;SDS011;58391;47.752;19.100;2022-07-23T15:32:11;2.87;;;2.03;;
70787;SDS011;58391;47.752;19.100;2022-07-23T15:34:39;3.58;;;2.55;;
70787;SDS011;58391;47.752;19.100;2022-07-23T15:37:06;3.67;;;2.47;;
70787;SDS011;58391;47.752;19.100;2022-07-23T15:39:37;2.83;;;2.12;;